Time;durP1;ratioP1;P1;durP2;ratioP2;P2;SDS_P1;SDS_P2;PMS_P1;PMS_P2;Temp;Humidity;BMP_temperature;BMP_pressure;BME280_temperature;BME280_humidity;BME280_pressure;Samples;Min_cycle;Max_cycle;Signal;HPM_P1;HPM_P2
2021/01/20 00:00:06;;;;;;;234.50;105.52;;;;;;;-0.51;62.24;94206.34;1840786;77;21436;-48
2021/01/20 00:02:34;;;;;;;212.65;98.10;;;;;;;-0.53;62.15;94196.52;1840810;77;21087;-50
2021/01/20 00:05:04;;;;;;;200.60;91.08;;;;;;;-0.55;62.24;94198.23;1840879;78;21468;-48
2021/01/20 00:07:32;;;;;;;188.72;87.95;;;;;;;-0.54;62.37;94201.72;1840829;77;21124;-48
2021/01/20 00:10:01;;;;;;;183.65;86.40;;;;;;;-0.45;62.39;94198.05;1840841;77;21104;-49
2021/01/20 00:12:30;;;;;;;187.03;87.27;;;;;;;-0.32;61.97;94177.53;1840772;77;21379;-48
2021/01/20 00:14:58;;;;;;;152.80;71.62;;;;;;;-0.23;61.69;94183.30;1840781;78;21149;-50
2021/01/20 00:17:26;;;;;;;240.87;101.58;;;;;;;-0.25;61.77;94185.03;1840905;78;21476;-48
2021/01/20 00:19:55;;;;;;;306.20;125.27;;;;;;;-0.37;61.83;94188.16;1840796;78;21064;-49
2021/01/20 00:22:28;;;;;;;204.43;94.05;;;;;;;-0.39;62.19;94180.27;1840805;78;21045;-49
2021/01/20 00:24:55;;;;;;;181.95;88.05;;;;;;;-0.41;62.19;94180.64;1840708;77;21438;-47
2021/01/20 00:27:23;;;;;;;180.40;89.03;;;;;;;-0.48;62.26;94181.25;1845502;77;21485;-48
2021/01/20 00:29:51;;;;;;;213.10;102.22;;;;;;;-0.56;62.25;94185.14;1846673;77;21575;-49
2021/01/20 00:32:20;;;;;;;182.37;89.13;;;;;;;-0.61;62.09;94180.15;1846682;77;21103;-48
2021/01/20 00:34:48;;;;;;;154.20;79.65;;;;;;;-0.63;62.27;94183.82;1846822;77;21590;-48
2021/01/20 00:37:17;;;;;;;149.27;71.02;;;;;;;-0.63;62.07;94171.67;1846709;77;21237;-50
2021/01/20 00:39:45;;;;;;;192.70;92.75;;;;;;;-0.74;62.07;94173.61;1846647;77;21123;-50
2021/01/20 00:42:14;;;;;;;204.32;98.90;;;;;;;-0.89;62.50;94169.40;1846703;77;21067;-50
2021/01/20 00:44:44;;;;;;;201.55;96.45;;;;;;;-0.95;62.64;94161.52;1846692;77;21055;-49
2021/01/20 00:47:12;;;;;;;164.57;77.95;;;;;;;-0.98;62.83;94163.64;1846733;77;21107;-49
2021/01/20 00:49:42;;;;;;;147.87;72.62;;;;;;;-0.94;62.83;94161.70;1846682;77;21071;-48
2021/01/20 00:52:11;;;;;;;137.07;66.90;;;;;;;-0.97;62.73;94153.79;1846564;77;21103;-48
2021/01/20 00:54:40;;;;;;;144.65;73.20;;;;;;;-0.91;62.69;94158.22;1846760;77;21099;-48
2021/01/20 00:57:10;;;;;;;149.72;73.95;;;;;;;-0.89;62.79;94161.30;1818737;77;21531;-48
2021/01/20 00:59:38;;;;;;;138.12;65.95;;;;;;;-0.85;62.44;94150.69;1846682;77;21158;-48
2021/01/20 01:02:07;;;;;;;125.00;63.63;;;;;;;-0.83;62.39;94134.09;1846709;77;21354;-48
2021/01/20 01:04:38;;;;;;;129.87;65.45;;;;;;;-0.89;62.43;94136.44;1846390;77;21198;-48
2021/01/20 01:07:07;;;;;;;121.92;62.83;;;;;;;-0.89;62.50;94143.75;1846684;77;21075;-49
2021/01/20 01:09:36;;;;;;;149.35;72.62;;;;;;;-0.82;62.37;94135.62;1846686;77;21036;-48
2021/01/20 01:12:07;;;;;;;128.38;66.12;;;;;;;-0.75;62.33;94130.23;1843597;77;21469;-48
2021/01/20 01:14:36;;;;;;;113.00;58.42;;;;;;;-0.70;62.36;94128.47;1818702;77;22248;-48
2021/01/20 01:17:09;;;;;;;;;;;;;;;-0.58;62.04;94125.34;1848132;77;21086;-48
2021/01/20 01:19:39;;;;;;;101.80;53.83;;;;;;;-0.55;61.71;94120.51;1845120;77;20207;-49
2021/01/20 01:22:08;;;;;;;97.85;52.25;;;;;;;-0.57;61.70;94123.59;1846679;77;21130;-48
2021/01/20 01:24:38;;;;;;;115.67;57.83;;;;;;;-0.43;61.47;94125.48;1846760;77;21064;-48
2021/01/20 01:27:06;;;;;;;143.93;68.15;;;;;;;-0.30;61.17;94119.24;1846600;77;22102;-48
2021/01/20 01:29:35;;;;;;;132.95;64.20;;;;;;;-0.24;61.04;94110.91;1846595;77;21043;-48
2021/01/20 01:32:06;;;;;;;90.20;49.15;;;;;;;-0.22;61.17;94112.62;1845627;77;21051;-49
2021/01/20 01:34:36;;;;;;;77.22;44.25;;;;;;;-0.17;60.97;94108.75;1818692;77;21048;-48
2021/01/20 01:37:06;;;;;;;76.82;40.78;;;;;;;-0.23;60.95;94102.98;1846691;77;21059;-48
2021/01/20 01:39:45;;;;;;;75.87;43.30;;;;;;;-0.21;60.94;94106.06;1873640;75;21896;-48
2021/01/20 01:42:13;;;;;;;85.28;45.20;;;;;;;-0.23;60.77;94096.83;1841578;77;21169;-48
2021/01/20 01:44:42;;;;;;;89.03;48.70;;;;;;;-0.21;60.90;94099.90;1841586;78;21489;-48
2021/01/20 01:47:13;;;;;;;100.15;51.80;;;;;;;-0.22;60.88;94098.36;1841343;77;20938;-48
2021/01/20 01:49:43;;;;;;;103.22;53.65;;;;;;;-0.23;61.23;94091.42;1841377;78;21057;-49
2021/01/20 01:52:13;;;;;;;87.67;46.08;;;;;;;-0.18;61.32;94094.48;1841635;77;21088;-49
2021/01/20 01:54:41;;;;;;;76.55;39.40;;;;;;;-0.14;61.48;94092.52;1841545;78;21161;-48
2021/01/20 01:57:29;;;;;;;70.55;39.05;;;;;;;-0.14;61.57;94081.72;1841558;77;21414;-49
2021/01/20 01:59:58;;;;;;;59.30;35.00;;;;;;;-0.22;61.52;94095.66;1841491;78;21120;-49
2021/01/20 02:02:42;;;;;;;65.75;36.53;;;;;;;-0.23;61.56;94084.67;1841560;77;21054;-50
2021/01/20 02:05:13;;;;;;;91.40;48.65;;;;;;;-0.15;61.51;94087.50;1840827;77;21077;-49
2021/01/20 02:07:44;;;;;;;108.17;55.88;;;;;;;-0.08;61.45;94082.07;1841574;78;21033;-48
2021/01/20 02:10:13;;;;;;;96.40;51.10;;;;;;;-0.07;61.43;94073.55;1841614;78;22272;-48
2021/01/20 02:13:26;;;;;;;73.45;41.48;;;;;;;-0.03;61.67;94073.53;1841487;77;21054;-48
2021/01/20 02:16:20;;;;;;;63.78;34.40;;;;;;;0.00;61.47;94069.47;1841599;77;21565;-48
2021/01/20 02:18:52;;;;;;;51.37;28.95;;;;;;;-0.07;61.48;94071.45;1841515;78;21132;-49
2021/01/20 02:22:07;;;;;;;51.30;29.48;;;;;;;-0.12;61.60;94076.68;1841240;78;21069;-48
2021/01/20 02:24:58;;;;;;;82.70;40.45;;;;;;;-0.16;61.61;94069.75;1815403;78;21188;-49
2021/01/20 02:28:05;;;;;;;118.28;54.03;;;;;;;-0.09;61.88;94076.45;1839640;77;21165;-48
2021/01/20 02:30:35;;;;;;;72.17;36.48;;;;;;;0.00;61.33;94068.12;1781014;79;21049;-48
2021/01/20 02:33:06;;;;;;;100.67;46.40;;;;;;;-0.02;61.24;94067.15;1807428;79;21478;-49
2021/01/20 02:35:42;;;;;;;112.20;48.55;;;;;;;-0.02;61.46;94073.91;1805919;79;21073;-49
2021/01/20 02:38:10;;;;;;;92.60;44.90;;;;;;;0.03;61.69;94073.48;1809611;79;22177;-49
2021/01/20 02:40:40;;;;;;;113.80;51.40;;;;;;;0.16;61.61;94071.85;1813092;79;21130;-48
2021/01/20 02:43:13;;;;;;;97.55;45.00;;;;;;;0.29;61.39;94070.78;1810597;79;21071;-48
2021/01/20 02:46:01;;;;;;;63.60;32.33;;;;;;;0.33;61.34;94060.12;1731290;82;21200;-48
2021/01/20 02:48:30;;;;;;;64.58;31.30;;;;;;;0.40;61.02;94068.77;1731428;81;21173;-48
2021/01/20 02:51:00;;;;;;;55.55;32.85;;;;;;;0.37;60.84;94063.57;1763112;79;22392;-49
2021/01/20 02:53:30;;;;;;;81.53;37.33;;;;;;;0.28;60.85;94061.13;1813531;79;21144;-48
2021/01/20 02:56:07;;;;;;;117.13;48.95;;;;;;;0.27;60.83;94058.25;1809604;79;21060;-48
2021/01/20 02:58:56;;;;;;;124.33;63.33;;;;;;;0.17;60.81;94059.86;1811543;78;21058;-49
2021/01/20 03:01:29;;;;;;;135.25;67.70;;;;;;;0.14;61.19;94057.18;1813725;79;21148;-48
2021/01/20 03:03:59;;;;;;;137.20;65.80;;;;;;;0.12;61.30;94060.30;1813735;78;21533;-48
2021/01/20 03:06:28;;;;;;;149.32;64.53;;;;;;;0.10;61.48;94057.80;1813515;79;21133;-48
2021/01/20 03:08:56;;;;;;;107.85;51.33;;;;;;;0.04;61.73;94058.80;1813591;78;21073;-49
2021/01/20 03:11:24;;;;;;;102.60;51.73;;;;;;;0.12;61.87;94057.59;1813602;79;21084;-49
2021/01/20 03:13:52;;;;;;;142.05;60.40;;;;;;;0.10;61.95;94053.17;1813567;79;21184;-49
2021/01/20 03:16:23;;;;;;;103.97;49.05;;;;;;;0.15;62.21;94046.55;1813591;79;21191;-48
2021/01/20 03:18:52;;;;;;;104.92;50.70;;;;;;;0.18;62.24;94038.98;1787114;79;21485;-48
2021/01/20 03:21:21;;;;;;;103.65;52.70;;;;;;;0.09;62.39;94050.28;1813638;78;21538;-49
2021/01/20 03:23:49;;;;;;;107.12;50.85;;;;;;;0.01;62.50;94042.02;1813560;79;21117;-50
2021/01/20 03:26:17;;;;;;;116.77;53.80;;;;;;;-0.04;62.58;94043.62;1813604;79;21187;-49
2021/01/20 03:28:45;;;;;;;105.67;52.25;;;;;;;-0.06;62.72;94041.90;1813518;77;21373;-49
2021/01/20 03:31:13;;;;;;;103.67;50.38;;;;;;;-0.08;63.04;94040.18;1813497;79;21077;-48
2021/01/20 03:33:41;;;;;;;119.65;58.40;;;;;;;0.01;63.01;94035.86;1813630;79;21061;-48
2021/01/20 03:36:10;;;;;;;118.17;55.75;;;;;;;0.02;63.08;94033.34;1813555;79;21148;-48
2021/01/20 03:38:38;;;;;;;77.12;40.40;;;;;;;0.06;63.04;94031.38;1811816;78;21533;-49
2021/01/20 03:41:06;;;;;;;83.72;42.50;;;;;;;0.10;63.04;94039.66;1807845;78;21138;-49
2021/01/20 03:43:35;;;;;;;92.30;47.00;;;;;;;0.19;63.07;94028.39;1807797;79;21061;-48
2021/01/20 03:46:03;;;;;;;104.80;50.85;;;;;;;0.32;62.99;94020.73;1807935;78;21056;-48
2021/01/20 03:48:31;;;;;;;137.12;66.15;;;;;;;0.47;62.96;94018.66;1807855;78;21133;-48
2021/01/20 03:50:59;;;;;;;141.57;66.95;;;;;;;0.62;62.68;94011.95;1807948;79;21552;-48
2021/01/20 03:53:28;;;;;;;276.80;127.53;;;;;;;0.66;62.61;94015.38;1807849;78;21195;-48
2021/01/20 03:55:56;;;;;;;168.00;80.67;;;;;;;0.66;62.49;94018.87;1807826;78;21085;-49
2021/01/20 03:58:25;;;;;;;211.03;98.92;;;;;;;0.69;62.29;94012.64;1807891;78;21053;-48
2021/01/20 04:00:53;;;;;;;138.88;70.83;;;;;;;0.69;62.32;94016.70;1807820;79;21073;-49
2021/01/20 04:03:21;;;;;;;174.75;90.90;;;;;;;0.65;62.42;94007.08;1807955;79;21475;-49
2021/01/20 04:05:52;;;;;;;116.70;61.08;;;;;;;0.60;62.64;94006.92;1804137;79;21412;-48
2021/01/20 04:08:20;;;;;;;81.17;45.08;;;;;;;0.57;62.82;94013.74;1807793;79;21096;-49
2021/01/20 04:10:48;;;;;;;86.37;47.23;;;;;;;0.57;62.79;94017.20;1807825;78;21133;-49
2021/01/20 04:13:16;;;;;;;91.20;47.60;;;;;;;0.60;62.96;94006.92;1807822;78;21066;-48
2021/01/20 04:15:45;;;;;;;82.30;43.17;;;;;;;0.73;62.73;94003.91;1807906;79;21773;-49
2021/01/20 04:18:13;;;;;;;85.90;48.20;;;;;;;0.77;62.49;94015.45;1807750;79;21372;-49
2021/01/20 04:20:42;;;;;;;102.15;55.45;;;;;;;0.73;62.44;94007.96;1807761;79;21089;-48
2021/01/20 04:23:10;;;;;;;95.10;50.90;;;;;;;0.66;62.54;94008.61;1807830;79;21101;-48
2021/01/20 04:25:38;;;;;;;91.02;50.70;;;;;;;0.67;62.84;94006.88;1807802;78;21137;-50
2021/01/20 04:28:06;;;;;;;80.55;45.98;;;;;;;0.72;62.83;94005.07;1807840;78;21030;-49
2021/01/20 04:30:35;;;;;;;104.38;57.83;;;;;;;0.79;63.04;94007.69;1807780;78;21362;-49
2021/01/20 04:33:03;;;;;;;111.37;63.55;;;;;;;0.87;63.01;94005.11;1807828;78;21601;-48
2021/01/20 04:35:32;;;;;;;98.62;53.20;;;;;;;0.96;62.90;94001.31;1807877;79;21464;-49
2021/01/20 04:38:01;;;;;;;91.20;49.27;;;;;;;0.98;62.91;94007.09;1807762;79;21151;-48
2021/01/20 04:40:29;;;;;;;87.75;49.83;;;;;;;1.01;62.91;93999.55;1812673;79;21133;-49
2021/01/20 04:42:58;;;;;;;92.97;50.85;;;;;;;0.96;62.67;94001.92;1813492;78;21429;-48
2021/01/20 04:45:26;;;;;;;93.45;50.90;;;;;;;0.88;63.13;94009.92;1813501;79;21514;-48
2021/01/20 04:47:54;;;;;;;98.10;52.78;;;;;;;0.96;63.02;94004.63;1813500;79;21057;-48
2021/01/20 04:50:23;;;;;;;99.37;53.63;;;;;;;0.98;63.06;94007.70;1813593;79;21475;-47
2021/01/20 04:52:51;;;;;;;98.90;53.90;;;;;;;1.00;63.16;94014.83;1813537;79;21113;-48
2021/01/20 04:55:19;;;;;;;88.78;50.60;;;;;;;1.06;63.19;94011.84;1813481;78;21292;-48
2021/01/20 04:57:48;;;;;;;95.80;52.62;;;;;;;1.12;63.14;94013.70;1813388;78;21112;-55
2021/01/20 05:00:18;;;;;;;89.40;49.90;;;;;;;1.09;63.06;94010.46;1813472;79;21144;-48
2021/01/20 05:02:47;;;;;;;86.12;47.53;;;;;;;1.05;63.37;94000.27;1813511;78;21041;-48
2021/01/20 05:05:16;;;;;;;80.77;46.50;;;;;;;1.10;63.41;94007.18;1813510;79;21077;-50
2021/01/20 05:07:44;;;;;;;53.52;31.82;;;;;;;1.11;63.62;94012.17;1813497;78;21381;-47
2021/01/20 05:10:13;;;;;;;66.42;39.95;;;;;;;1.20;63.70;94015.17;1813525;79;21518;-49
2021/01/20 05:12:43;;;;;;;55.33;31.42;;;;;;;1.22;63.57;94014.18;1781625;79;21149;-48
2021/01/20 05:15:16;;;;;;;32.98;22.93;;;;;;;1.18;63.67;94020.20;1813505;79;21105;-48
2021/01/20 05:18:05;;;;;;;38.30;23.95;;;;;;;1.18;63.69;94021.55;1813497;79;21073;-48
2021/01/20 05:20:36;;;;;;;39.48;23.92;;;;;;;1.28;63.63;94015.86;1813522;79;21191;-48
2021/01/20 05:23:06;;;;;;;49.90;29.87;;;;;;;1.30;63.70;94019.68;1813562;79;21132;-48
2021/01/20 05:25:43;;;;;;;42.30;26.73;;;;;;;1.38;63.59;94023.07;1813532;79;21450;-49
2021/01/20 05:28:25;;;;;;;30.17;20.57;;;;;;;1.47;63.47;94024.71;1813456;79;21049;-48
2021/01/20 05:31:01;;;;;;;34.92;21.48;;;;;;;1.59;63.12;94034.42;1813497;78;21505;-48
2021/01/20 05:33:38;;;;;;;61.35;32.50;;;;;;;1.57;63.21;94032.70;1813488;79;21377;-48
2021/01/20 05:36:16;;;;;;;38.50;23.30;;;;;;;1.67;62.95;94035.84;1813433;79;21176;-47
2021/01/20 05:38:51;;;;;;;31.90;18.65;;;;;;;1.64;62.85;94038.59;1813487;78;21065;-48
2021/01/20 05:41:29;;;;;;;25.62;16.82;;;;;;;1.58;62.86;94041.02;1813605;78;21164;-48
2021/01/20 05:44:12;;;;;;;20.92;13.90;;;;;;;1.57;62.95;94038.13;1813613;78;21485;-48
2021/01/20 05:46:43;;;;;;;30.32;20.60;;;;;;;1.60;62.89;94046.80;1813613;78;22120;-48
2021/01/20 05:49:26;;;;;;;23.87;17.50;;;;;;;1.62;63.05;94049.86;1813447;78;21116;-48
2021/01/20 05:51:54;;;;;;;;;;;;;;;1.68;62.94;94056.35;1816246;79;21493;-48
2021/01/20 05:54:31;;;;;;;28.60;19.15;;;;;;;1.74;62.67;94058.81;1813461;79;20227;-48
2021/01/20 05:57:18;;;;;;;27.77;16.70;;;;;;;1.83;62.42;94060.42;1813469;79;21097;-49
2021/01/20 05:59:49;;;;;;;57.50;33.98;;;;;;;1.90;62.17;94058.95;1813438;78;21197;-49
2021/01/20 06:02:18;;;;;;;36.53;24.18;;;;;;;1.93;62.07;94062.23;1813408;78;21152;-50
2021/01/20 06:04:48;;;;;;;28.52;19.32;;;;;;;1.99;61.84;94054.55;1813448;79;21156;-49
2021/01/20 06:07:16;;;;;;;23.00;16.93;;;;;;;2.02;61.72;94059.76;1813504;79;21482;-49
2021/01/20 06:09:46;;;;;;;20.55;14.93;;;;;;;1.99;61.90;94071.43;1813436;79;21092;-49
2021/01/20 06:12:14;;;;;;;26.05;17.32;;;;;;;1.98;61.91;94061.77;1813545;78;21138;-48
2021/01/20 06:14:44;;;;;;;106.45;56.20;;;;;;;2.01;62.04;94065.79;1813303;79;21057;-49
2021/01/20 06:17:29;;;;;;;142.93;72.62;;;;;;;2.03;61.84;94072.92;1813413;79;21180;-48
2021/01/20 06:20:01;;;;;;;140.50;75.80;;;;;;;1.93;61.98;94075.79;1807521;78;21600;-48
2021/01/20 06:22:30;;;;;;;134.72;75.08;;;;;;;1.86;62.12;94081.29;1813466;79;21109;-49
2021/01/20 06:25:25;;;;;;;119.70;69.77;;;;;;;1.76;62.28;94086.28;1813565;79;22112;-50
2021/01/20 06:28:09;;;;;;;134.55;74.27;;;;;;;1.69;62.34;94090.42;1790315;79;22000;-49
2021/01/20 06:30:47;;;;;;;;;;;;;;;1.62;62.55;94091.88;1816348;77;21485;-49
2021/01/20 06:33:16;;;;;;;131.87;73.80;;;;;;;1.65;62.57;94097.83;1813607;78;20233;-48
2021/01/20 06:35:50;;;;;;;131.25;72.75;;;;;;;1.66;62.55;94099.37;1813641;78;21518;-49
2021/01/20 06:38:33;;;;;;;159.67;84.00;;;;;;;1.66;62.62;94096.66;1813052;78;22270;-51
2021/01/20 06:41:09;;;;;;;205.22;105.20;;;;;;;1.67;62.70;94098.19;1804097;77;21146;-50
2021/01/20 06:43:44;;;;;;;118.17;69.42;;;;;;;1.72;62.72;94101.80;1750442;81;21193;-50
2021/01/20 06:46:22;;;;;;;113.00;68.78;;;;;;;1.79;62.63;94109.86;1721368;82;21518;-48
2021/01/20 06:49:02;;;;;;;115.25;65.85;;;;;;;1.82;62.59;94112.53;1764653;80;21542;-51
2021/01/20 06:51:32;;;;;;;101.25;60.23;;;;;;;1.89;62.52;94115.72;1749473;81;21546;-49
2021/01/20 06:54:11;;;;;;;97.40;54.77;;;;;;;1.93;62.71;94125.95;1700771;84;21137;-49
2021/01/20 06:56:49;;;;;;;75.55;47.73;;;;;;;2.02;62.65;94128.92;1705831;82;21160;-49
2021/01/20 06:59:25;;;;;;;108.90;66.65;;;;;;;2.13;62.41;94127.60;1705843;82;21248;-52
2021/01/20 07:02:10;;;;;;;75.70;49.67;;;;;;;2.25;62.16;94127.62;1741857;80;21085;-51
2021/01/20 07:04:51;;;;;;;72.20;46.23;;;;;;;2.30;62.08;94128.55;1748234;80;21435;-49
2021/01/20 07:07:50;;;;;;;70.10;45.70;;;;;;;2.43;61.94;94137.64;1735034;80;21102;-51
2021/01/20 07:10:21;;;;;;;122.60;80.77;;;;;;;2.49;61.86;94140.84;1716569;82;21193;-50
2021/01/20 07:13:14;;;;;;;99.55;57.55;;;;;;;2.63;61.84;94135.21;1746995;82;21237;-49
2021/01/20 07:15:44;;;;;;;100.73;58.57;;;;;;;2.81;61.33;94140.35;1738188;82;21074;-49
2021/01/20 07:18:14;;;;;;;122.40;73.70;;;;;;;2.90;60.95;94141.97;1740549;81;21381;-48
2021/01/20 07:20:43;;;;;;;119.77;70.75;;;;;;;2.97;61.18;94135.05;1748031;80;21199;-52
2021/01/20 07:23:13;;;;;;;111.77;68.05;;;;;;;3.09;61.10;94133.86;1739649;82;21078;-49
2021/01/20 07:25:47;;;;;;;110.88;69.00;;;;;;;3.27;60.90;94145.19;1751072;80;21127;-51
2021/01/20 07:28:15;;;;;;;115.77;69.05;;;;;;;3.45;60.40;94144.89;1720294;80;21182;-49
2021/01/20 07:30:44;;;;;;;129.45;75.15;;;;;;;3.52;60.40;94147.64;1734125;82;21401;-49
2021/01/20 07:33:21;;;;;;;142.90;80.03;;;;;;;3.64;60.00;94155.20;1751468;81;21090;-51
2021/01/20 07:35:51;;;;;;;163.52;89.40;;;;;;;3.75;59.56;94153.63;1745720;82;21141;-52
2021/01/20 07:38:20;;;;;;;172.60;87.27;;;;;;;3.85;59.64;94162.95;1750948;80;21911;-52
2021/01/20 07:40:48;;;;;;;105.03;67.00;;;;;;;4.03;59.21;94160.64;1748341;80;21624;-50
2021/01/20 07:43:21;;;;;;;64.97;41.68;;;;;;;4.17;58.23;94165.03;1736522;80;21213;-55
2021/01/20 07:45:52;;;;;;;72.92;47.53;;;;;;;4.27;57.16;94172.22;1740089;82;21189;-52
2021/01/20 07:48:30;;;;;;;82.00;49.95;;;;;;;4.27;56.67;94162.69;1727103;80;21792;-52
2021/01/20 07:51:00;;;;;;;89.17;55.63;;;;;;;4.31;56.28;94171.55;1739102;81;21587;-51
2021/01/20 07:53:30;;;;;;;89.72;55.83;;;;;;;4.37;56.18;94178.02;1740364;82;21572;-50
2021/01/20 07:55:59;;;;;;;102.75;59.98;;;;;;;4.47;56.01;94178.40;1744179;80;21350;-50
2021/01/20 07:58:30;;;;;;;61.58;37.80;;;;;;;4.65;55.57;94189.68;1737944;81;21189;-51
2021/01/20 08:00:59;;;;;;;70.42;42.23;;;;;;;4.73;54.58;94180.92;1719467;82;21178;-49
2021/01/20 08:03:35;;;;;;;28.42;20.20;;;;;;;4.76;54.50;94184.16;1742042;81;21621;-51
2021/01/20 08:06:10;;;;;;;47.00;30.82;;;;;;;4.79;53.93;94198.30;1744494;80;21212;-50
2021/01/20 08:08:51;;;;;;;33.55;21.87;;;;;;;4.80;53.92;94191.66;1748311;81;21427;-53
2021/01/20 08:11:23;;;;;;;20.50;15.25;;;;;;;4.92;53.81;94192.95;1732638;82;21130;-52
2021/01/20 08:13:52;;;;;;;41.90;24.82;;;;;;;4.98;53.32;94202.92;1747114;80;21135;-51
2021/01/20 08:16:21;;;;;;;17.77;13.30;;;;;;;4.95;53.18;94199.69;1740485;81;21103;-51
2021/01/20 08:18:50;;;;;;;14.73;10.98;;;;;;;4.96;52.62;94202.58;1741639;81;21179;-52
2021/01/20 08:21:18;;;;;;;13.62;11.33;;;;;;;4.97;52.45;94206.09;1750817;81;21459;-51
2021/01/20 08:23:56;;;;;;;14.70;10.78;;;;;;;4.96;52.05;94208.64;1747649;81;21214;-50
2021/01/20 08:26:26;;;;;;;8.75;7.95;;;;;;;4.97;52.48;94210.17;1747671;80;21150;-52
2021/01/20 08:29:13;;;;;;;9.53;8.55;;;;;;;4.97;51.79;94209.56;1732314;82;21503;-50
2021/01/20 08:31:42;;;;;;;15.58;13.55;;;;;;;4.93;51.85;94217.06;1734877;81;21554;-50
2021/01/20 08:34:22;;;;;;;14.60;11.75;;;;;;;4.81;52.07;94216.95;1734780;80;21359;-48
2021/01/20 08:37:02;;;;;;;9.53;8.63;;;;;;;4.72;52.59;94215.39;1735577;81;21206;-48
2021/01/20 08:39:32;;;;;;;7.47;6.65;;;;;;;4.69;52.66;94222.47;1744925;80;21149;-48
2021/01/20 08:45:13;;;;;;;8.05;7.28;;;;;;;4.61;52.78;94232.58;1878951;74;22390;-50
2021/01/20 08:48:07;;;;;;;7.33;6.80;;;;;;;4.59;53.01;94235.71;1856043;77;21517;-53
2021/01/20 08:50:45;;;;;;;10.35;9.45;;;;;;;4.57;53.21;94240.81;1850498;77;22158;-49
2021/01/20 08:53:17;;;;;;;10.78;9.78;;;;;;;4.56;53.50;94239.28;1842767;75;21914;-52
2021/01/20 08:55:56;;;;;;;9.13;8.33;;;;;;;4.60;53.39;94244.66;1854922;75;21120;-50
2021/01/20 08:58:31;;;;;;;7.72;7.03;;;;;;;4.66;53.47;94243.75;1840995;77;21142;-55
2021/01/20 09:01:09;;;;;;;10.30;8.55;;;;;;;4.68;53.33;94244.09;1842291;77;21049;-51
2021/01/20 09:03:38;;;;;;;9.58;8.48;;;;;;;4.68;53.26;94238.64;1821525;77;22285;-52
2021/01/20 09:06:16;;;;;;;8.48;7.60;;;;;;;4.76;53.03;94253.64;1849870;77;21223;-54
2021/01/20 09:08:44;;;;;;;10.58;9.48;;;;;;;4.72;53.02;94247.50;1846516;75;21131;-49
2021/01/20 09:11:12;;;;;;;10.88;9.78;;;;;;;4.66;53.09;94246.47;1863608;75;21434;-51
2021/01/20 09:13:41;;;;;;;10.30;9.18;;;;;;;4.69;53.11;94242.12;1855169;76;21155;-53
2021/01/20 09:16:09;;;;;;;12.18;9.78;;;;;;;4.73;53.15;94246.31;1850616;77;21418;-54
2021/01/20 09:18:38;;;;;;;12.35;10.40;;;;;;;4.72;53.47;94243.42;1855819;76;21175;-51
2021/01/20 09:21:07;;;;;;;12.93;10.85;;;;;;;4.73;53.71;94248.26;1782396;80;21638;-55
2021/01/20 09:23:35;;;;;;;12.68;10.98;;;;;;;4.76;53.77;94259.09;1819458;77;21135;-52
2021/01/20 09:26:06;;;;;;;12.60;10.63;;;;;;;4.81;53.74;94248.30;1787871;79;21158;-52
2021/01/20 09:28:36;;;;;;;14.58;12.40;;;;;;;4.88;53.66;94250.27;1788440;79;21555;-52
2021/01/20 09:31:05;;;;;;;13.20;10.43;;;;;;;4.96;53.94;94250.89;1797587;78;21537;-53
2021/01/20 09:33:33;;;;;;;9.48;8.58;;;;;;;5.03;53.33;94246.05;1794841;78;21170;-51
2021/01/20 09:36:03;;;;;;;9.10;8.20;;;;;;;5.05;53.24;94231.39;1797963;78;21152;-50
2021/01/20 09:38:31;;;;;;;10.70;9.58;;;;;;;5.12;53.04;94231.84;1792546;78;21123;-51
2021/01/20 09:41:02;;;;;;;10.70;8.95;;;;;;;5.21;52.91;94226.55;1798324;78;21577;-49
2021/01/20 09:43:30;;;;;;;12.40;9.93;;;;;;;5.37;52.90;94228.67;1792767;78;21186;-50
2021/01/20 09:45:59;;;;;;;9.90;8.85;;;;;;;5.56;52.59;94238.14;1795660;78;21139;-51
2021/01/20 09:48:28;;;;;;;10.50;9.33;;;;;;;5.70;52.00;94237.02;1804573;78;21178;-50
2021/01/20 09:50:56;;;;;;;13.85;11.73;;;;;;;5.86;52.07;94230.98;1801286;79;21112;-51
2021/01/20 09:53:25;;;;;;;12.58;10.28;;;;;;;5.93;51.58;94232.77;1788123;79;21936;-51
2021/01/20 09:55:54;;;;;;;14.33;10.72;;;;;;;5.97;51.41;94234.80;1790873;79;21219;-51
2021/01/20 09:58:22;;;;;;;11.95;10.70;;;;;;;5.97;51.28;94234.80;1803527;78;21095;-52
2021/01/20 10:00:51;;;;;;;13.95;12.07;;;;;;;6.01;51.04;94232.73;1795090;79;21187;-51
2021/01/20 10:03:19;;;;;;;15.75;12.25;;;;;;;6.08;51.20;94235.27;1808449;78;21147;-51
2021/01/20 10:05:50;;;;;;;15.85;12.45;;;;;;;6.15;51.41;94231.00;1805169;79;22340;-51
2021/01/20 10:08:20;;;;;;;13.00;10.88;;;;;;;6.23;51.21;94233.11;1799387;79;21143;-49
2021/01/20 10:10:48;;;;;;;16.60;12.43;;;;;;;6.26;50.86;94243.17;1797133;79;21505;-49
2021/01/20 10:13:19;;;;;;;22.17;17.45;;;;;;;6.23;50.99;94243.26;1793986;79;21150;-49
2021/01/20 10:15:48;;;;;;;16.32;12.70;;;;;;;6.27;51.20;94246.06;1809485;78;21096;-50
2021/01/20 10:18:17;;;;;;;14.10;10.98;;;;;;;6.32;51.17;94236.59;1760179;79;22310;-50
2021/01/20 10:20:50;;;;;;;10.98;9.73;;;;;;;6.35;51.43;94241.18;1753082;80;21134;-53
2021/01/20 10:23:18;;;;;;;13.40;10.80;;;;;;;6.37;51.33;94245.61;1803671;79;21072;-49
2021/01/20 10:25:47;;;;;;;13.70;11.00;;;;;;;6.30;51.43;94238.37;1800022;79;21132;-52
2021/01/20 10:28:16;;;;;;;21.17;13.60;;;;;;;6.36;51.52;94241.34;1791622;78;21163;-52
2021/01/20 10:30:44;;;;;;;14.70;12.53;;;;;;;6.48;51.79;94231.82;1792834;79;21393;-51
2021/01/20 10:33:12;;;;;;;14.93;12.13;;;;;;;6.59;51.14;94232.88;1818176;77;21166;-51
2021/01/20 10:35:42;;;;;;;15.08;11.53;;;;;;;6.55;51.30;94228.12;1776692;79;21574;-50
2021/01/20 10:38:10;;;;;;;14.20;11.63;;;;;;;6.48;51.54;94225.60;1773779;79;21209;-50
2021/01/20 10:40:39;;;;;;;12.45;10.15;;;;;;;6.41;51.73;94223.05;1780189;80;21588;-50
2021/01/20 10:43:07;;;;;;;10.72;8.98;;;;;;;6.36;51.86;94218.88;1792668;78;22101;-50
2021/01/20 10:45:37;;;;;;;12.25;10.72;;;;;;;6.30;51.78;94217.89;1815178;78;21143;-50
2021/01/20 10:48:08;;;;;;;15.70;11.75;;;;;;;6.21;52.09;94216.98;1796882;78;21127;-50
2021/01/20 10:50:38;;;;;;;13.58;11.38;;;;;;;6.12;52.40;94221.70;1783408;79;21139;-50
2021/01/20 10:53:06;;;;;;;12.85;10.90;;;;;;;6.17;52.17;94222.53;1784745;80;21662;-50
2021/01/20 10:55:34;;;;;;;17.42;13.93;;;;;;;6.16;52.18;94212.80;1793134;80;21195;-49
2021/01/20 10:58:03;;;;;;;12.47;10.03;;;;;;;6.17;52.57;94214.34;1754791;80;21103;-51
2021/01/20 11:00:31;;;;;;;13.15;10.98;;;;;;;6.17;52.16;94212.97;1784083;79;21192;-50
2021/01/20 11:03:00;;;;;;;11.78;9.75;;;;;;;6.14;52.72;94208.37;1783224;80;21537;-50
2021/01/20 11:05:29;;;;;;;12.47;10.93;;;;;;;6.22;52.26;94206.22;1789019;79;21166;-52
2021/01/20 11:07:57;;;;;;;12.18;10.10;;;;;;;6.28;52.18;94199.80;1821319;78;21131;-49
2021/01/20 11:10:25;;;;;;;9.38;8.30;;;;;;;6.35;51.81;94196.11;1793450;78;21088;-51
2021/01/20 11:12:54;;;;;;;10.93;9.63;;;;;;;6.40;51.42;94194.20;1791417;80;21139;-50
2021/01/20 11:15:22;;;;;;;15.10;12.53;;;;;;;6.51;51.39;94187.84;1782152;80;21515;-48
2021/01/20 11:17:51;;;;;;;15.53;12.70;;;;;;;6.67;51.45;94195.97;1785603;79;21047;-50
2021/01/20 11:20:20;;;;;;;16.57;12.75;;;;;;;6.78;51.37;94191.72;1780506;80;21386;-50
2021/01/20 11:22:50;;;;;;;17.77;12.85;;;;;;;6.93;51.03;94196.92;1786432;79;21174;-51
2021/01/20 11:25:19;;;;;;;17.07;12.50;;;;;;;7.07;50.92;94200.57;1782558;80;21076;-49
2021/01/20 11:27:47;;;;;;;16.35;13.00;;;;;;;7.08;50.86;94198.62;1782577;80;21155;-49
2021/01/20 11:30:18;;;;;;;13.83;11.25;;;;;;;7.07;50.89;94199.20;1783094;80;21207;-50
2021/01/20 11:32:47;;;;;;;19.20;12.80;;;;;;;7.03;50.55;94193.70;1783570;79;21246;-49
2021/01/20 11:35:16;;;;;;;13.50;10.30;;;;;;;6.98;50.91;94199.70;1786329;79;21150;-51
2021/01/20 11:37:45;;;;;;;18.60;13.38;;;;;;;6.89;50.90;94196.24;1752807;80;21145;-51
2021/01/20 11:40:15;;;;;;;19.67;13.05;;;;;;;6.84;51.08;94196.80;1794536;79;21165;-56
2021/01/20 11:42:43;;;;;;;18.45;13.25;;;;;;;6.79;51.18;94200.08;1784102;80;21135;-50
2021/01/20 11:45:13;;;;;;;17.92;15.28;;;;;;;6.77;51.81;94203.07;1782781;79;21360;-51